Time;durP1;ratioP1;P1;durP2;ratioP2;P2;SDS_P1;SDS_P2;PMS_P1;PMS_P2;Temp;Humidity;BMP_temperature;BMP_pressure;BME280_temperature;BME280_humidity;BME280_pressure;Samples;Min_cycle;Max_cycle;Signal;HPM_P1;HPM_P2
2023/08/17 00:00:44;;;;;;;;;;;21.20;86.20;;;;;;4990291;28;19933;-67
2023/08/17 00:03:11;;;;;;;;;;;21.20;86.10;;;;;;4985305;28;19934;-65
2023/08/17 00:05:38;;;;;;;;;;;21.20;86.10;;;;;;4988134;28;19933;-67
2023/08/17 00:08:06;;;;;;;;;;;21.20;86.20;;;;;;4984254;28;19934;-66
2023/08/17 00:10:33;;;;;;;;;;;21.30;86.20;;;;;;4992085;28;19937;-66
2023/08/17 00:13:00;;;;;;;;;;;21.20;86.10;;;;;;4990756;28;20012;-67
2023/08/17 00:15:28;;;;;;;;;;;21.20;85.90;;;;;;4989728;28;19969;-66
2023/08/17 00:17:55;;;;;;;;;;;21.20;86.00;;;;;;4989905;28;19925;-67
2023/08/17 00:20:22;;;;;;;;;;;21.20;86.20;;;;;;4986989;28;20393;-66
2023/08/17 00:22:49;;;;;;;;;;;21.10;86.10;;;;;;4989759;28;19929;-65
2023/08/17 00:25:16;;;;;;;;;;;21.20;85.70;;;;;;4986801;28;20393;-65
2023/08/17 00:27:42;;;;;;;;;;;21.20;86.00;;;;;;4989470;28;19929;-66
2023/08/17 00:30:10;;;;;;;;;;;21.20;85.90;;;;;;4986106;28;20359;-66
2023/08/17 00:32:39;;;;;;;;;;;21.20;86.00;;;;;;4988601;28;19926;-66
2023/08/17 00:35:06;;;;;;;;;;;21.20;86.10;;;;;;4983442;28;19953;-67
2023/08/17 00:37:33;;;;;;;;;;;21.20;85.70;;;;;;4988588;28;19930;-66
2023/08/17 00:40:00;;;;;;;;;;;21.20;85.60;;;;;;4986565;28;19988;-67
2023/08/17 00:42:27;;;;;;;;;;;21.20;85.70;;;;;;4990533;28;19937;-65
2023/08/17 00:44:54;;;;;;;;;;;21.10;85.90;;;;;;4985070;28;19952;-65
2023/08/17 00:47:21;;;;;;;;;;;21.10;85.80;;;;;;4987451;28;20004;-65
2023/08/17 00:49:49;;;;;;;;;;;21.10;85.70;;;;;;4980809;28;19936;-66
2023/08/17 00:52:16;;;;;;;;;;;21.10;85.60;;;;;;4987225;28;19997;-65
2023/08/17 00:54:43;;;;;;;;;;;21.00;85.80;;;;;;4988516;28;20775;-66
2023/08/17 00:57:10;;;;;;;;;;;20.90;85.80;;;;;;4988134;28;19940;-65
2023/08/17 00:59:37;;;;;;;;;;;20.90;85.80;;;;;;4984853;28;19934;-65
2023/08/17 01:02:05;;;;;;;;;;;20.90;85.90;;;;;;4986759;28;20004;-65
2023/08/17 01:04:32;;;;;;;;;;;20.80;85.90;;;;;;4987950;28;19934;-64
2023/08/17 01:07:01;;;;;;;;;;;20.80;86.20;;;;;;4986210;28;19930;-66
2023/08/17 01:09:28;;;;;;;;;;;20.70;86.30;;;;;;4989770;28;19925;-69
2023/08/17 01:11:59;;;;;;;;;;;20.70;86.40;;;;;;4988764;28;19925;-69
2023/08/17 01:14:30;;;;;;;;;;;20.60;86.50;;;;;;4985928;28;19936;-69
2023/08/17 01:17:03;;;;;;;;;;;20.60;86.50;;;;;;4985638;28;19929;-70
2023/08/17 01:19:30;;;;;;;;;;;20.60;86.60;;;;;;5003349;28;20610;-70
2023/08/17 01:22:01;;;;;;;;;;;20.50;86.60;;;;;;4987999;28;19930;-69
2023/08/17 01:24:29;;;;;;;;;;;20.50;86.70;;;;;;5004110;28;19926;-68
2023/08/17 01:26:56;;;;;;;;;;;20.50;86.60;;;;;;4980609;28;20670;-69
2023/08/17 01:29:23;;;;;;;;;;;20.50;86.80;;;;;;4986415;28;20020;-70
2023/08/17 01:31:53;;;;;;;;;;;20.40;86.90;;;;;;5002020;28;19930;-70
2023/08/17 01:34:23;;;;;;;;;;;20.30;86.90;;;;;;4984044;28;20270;-70
2023/08/17 01:36:53;;;;;;;;;;;20.30;86.90;;;;;;4989476;28;20248;-69
2023/08/17 01:39:21;;;;;;;;;;;20.40;86.70;;;;;;4985553;28;19926;-70
2023/08/17 01:41:49;;;;;;;;;;;20.40;86.50;;;;;;4984789;28;19929;-69
2023/08/17 01:44:16;;;;;;;;;;;20.40;86.60;;;;;;4989275;28;19937;-70
2023/08/17 01:46:45;;;;;;;;;;;20.40;86.50;;;;;;4986150;28;19930;-70
2023/08/17 01:49:12;;;;;;;;;;;20.40;86.30;;;;;;5002087;28;19930;-69
2023/08/17 01:51:39;;;;;;;;;;;20.40;86.40;;;;;;5001629;28;19952;-69
2023/08/17 01:54:06;;;;;;;;;;;20.30;86.50;;;;;;4987984;28;19926;-70
2023/08/17 01:56:33;;;;;;;;;;;20.40;86.50;;;;;;4986122;28;19936;-70
2023/08/17 01:59:02;;;;;;;;;;;20.30;86.40;;;;;;5002704;28;20021;-69
2023/08/17 02:01:29;;;;;;;;;;;20.30;86.60;;;;;;4998978;28;19934;-70
2023/08/17 02:03:56;;;;;;;;;;;20.20;86.80;;;;;;4985346;28;19926;-70
2023/08/17 02:06:23;;;;;;;;;;;20.20;86.90;;;;;;4985228;28;19930;-70
2023/08/17 02:08:50;;;;;;;;;;;20.20;87.00;;;;;;4985677;28;19933;-70
2023/08/17 02:11:17;;;;;;;;;;;20.10;87.00;;;;;;4987577;28;20081;-68
2023/08/17 02:13:45;;;;;;;;;;;20.10;87.10;;;;;;4988184;28;19926;-70
2023/08/17 02:16:13;;;;;;;;;;;20.10;87.00;;;;;;4987386;28;19926;-69
2023/08/17 02:18:40;;;;;;;;;;;20.10;86.90;;;;;;4988817;28;20009;-68
2023/08/17 02:21:09;;;;;;;;;;;20.20;86.70;;;;;;4987507;28;20024;-68
2023/08/17 02:23:35;;;;;;;;;;;20.10;86.90;;;;;;4979842;28;19938;-68
2023/08/17 02:26:02;;;;;;;;;;;20.10;87.10;;;;;;4998312;28;19929;-68
2023/08/17 02:28:32;;;;;;;;;;;20.10;87.20;;;;;;4981274;28;20041;-66
2023/08/17 02:30:59;;;;;;;;;;;20.00;87.20;;;;;;4983669;28;19933;-70
2023/08/17 02:33:29;;;;;;;;;;;20.00;87.30;;;;;;4984205;28;19960;-68
2023/08/17 02:35:56;;;;;;;;;;;20.10;87.40;;;;;;4983664;28;19933;-67
2023/08/17 02:38:23;;;;;;;;;;;20.10;87.50;;;;;;4985575;28;19926;-68
2023/08/17 02:40:50;;;;;;;;;;;20.10;87.20;;;;;;4988510;28;19973;-68
2023/08/17 02:43:17;;;;;;;;;;;20.10;87.20;;;;;;4988038;28;19953;-68
2023/08/17 02:45:44;;;;;;;;;;;20.00;87.30;;;;;;4984395;28;20717;-68
2023/08/17 02:48:11;;;;;;;;;;;20.00;87.40;;;;;;4982986;28;20388;-67
2023/08/17 02:50:40;;;;;;;;;;;20.00;87.30;;;;;;4986725;28;19930;-68
2023/08/17 02:53:07;;;;;;;;;;;20.00;87.40;;;;;;4997033;28;19930;-68
2023/08/17 02:55:34;;;;;;;;;;;19.90;87.40;;;;;;5000539;28;19930;-68
2023/08/17 02:58:02;;;;;;;;;;;19.90;87.50;;;;;;4985077;28;20381;-68
2023/08/17 03:00:29;;;;;;;;;;;19.90;87.40;;;;;;4977833;28;19930;-69
2023/08/17 03:02:57;;;;;;;;;;;19.90;87.40;;;;;;4988787;28;19937;-68
2023/08/17 03:05:26;;;;;;;;;;;19.90;87.40;;;;;;4964121;28;19934;-67
2023/08/17 03:07:54;;;;;;;;;;;19.80;87.30;;;;;;4972956;28;20373;-67
2023/08/17 03:10:21;;;;;;;;;;;19.90;87.30;;;;;;5000790;28;20347;-67
2023/08/17 03:12:48;;;;;;;;;;;19.90;87.40;;;;;;4992922;28;19925;-67
2023/08/17 03:15:16;;;;;;;;;;;19.90;87.60;;;;;;4988097;28;20016;-69
2023/08/17 03:17:43;;;;;;;;;;;19.80;87.70;;;;;;4988560;28;19974;-68
2023/08/17 03:20:10;;;;;;;;;;;19.70;88.10;;;;;;4988617;28;19977;-68
2023/08/17 03:22:37;;;;;;;;;;;19.70;88.30;;;;;;4995562;28;19944;-68
2023/08/17 03:25:08;;;;;;;;;;;19.60;88.40;;;;;;4983091;28;19934;-64
2023/08/17 03:27:35;;;;;;;;;;;19.60;88.50;;;;;;5003160;28;19932;-68
2023/08/17 03:30:04;;;;;;;;;;;19.80;88.60;;;;;;4988164;28;19930;-70
2023/08/17 03:32:32;;;;;;;;;;;20.00;88.40;;;;;;4987437;28;19933;-69
2023/08/17 03:34:59;;;;;;;;;;;20.10;87.80;;;;;;4984914;28;19933;-68
2023/08/17 03:37:27;;;;;;;;;;;20.10;87.60;;;;;;4988190;28;19926;-68
2023/08/17 03:39:55;;;;;;;;;;;20.10;87.70;;;;;;4987805;28;19965;-68
2023/08/17 03:42:23;;;;;;;;;;;20.10;87.60;;;;;;4989682;28;20266;-67
2023/08/17 03:44:51;;;;;;;;;;;20.00;87.60;;;;;;4991305;28;20013;-68
2023/08/17 03:47:18;;;;;;;;;;;19.90;87.70;;;;;;4991280;28;19933;-68
2023/08/17 03:49:46;;;;;;;;;;;19.90;87.90;;;;;;4991740;28;19936;-68
2023/08/17 03:52:13;;;;;;;;;;;20.00;87.80;;;;;;4987063;28;20325;-68
2023/08/17 03:54:41;;;;;;;;;;;19.90;87.80;;;;;;4986746;28;20312;-68
2023/08/17 03:57:08;;;;;;;;;;;19.90;88.00;;;;;;4988679;28;19926;-67
2023/08/17 03:59:36;;;;;;;;;;;19.90;88.00;;;;;;4990019;28;20336;-69
2023/08/17 04:02:03;;;;;;;;;;;19.90;88.00;;;;;;4989660;28;19926;-67
2023/08/17 04:04:30;;;;;;;;;;;20.00;87.60;;;;;;4990911;28;20084;-69
2023/08/17 04:06:58;;;;;;;;;;;20.10;87.60;;;;;;5005168;28;19929;-67
2023/08/17 04:09:25;;;;;;;;;;;20.10;87.80;;;;;;4982102;28;19963;-68
2023/08/17 04:11:54;;;;;;;;;;;20.00;87.80;;;;;;4989754;28;20381;-68
2023/08/17 04:14:22;;;;;;;;;;;20.00;87.90;;;;;;4985273;28;20328;-69
2023/08/17 04:16:51;;;;;;;;;;;20.00;88.00;;;;;;4987899;28;19934;-68
2023/08/17 04:19:18;;;;;;;;;;;19.90;88.10;;;;;;4988044;28;19999;-68
2023/08/17 04:21:46;;;;;;;;;;;19.90;88.00;;;;;;5002540;28;19926;-68
2023/08/17 04:24:12;;;;;;;;;;;19.90;88.00;;;;;;4984199;28;19938;-68
2023/08/17 04:26:40;;;;;;;;;;;19.90;88.10;;;;;;5003057;28;20020;-68
2023/08/17 04:29:07;;;;;;;;;;;19.80;88.10;;;;;;4987003;28;19949;-70
2023/08/17 04:31:34;;;;;;;;;;;19.80;88.20;;;;;;4988398;28;19929;-69
2023/08/17 04:34:04;;;;;;;;;;;19.80;88.10;;;;;;5005346;28;20659;-67
2023/08/17 04:36:31;;;;;;;;;;;19.90;88.10;;;;;;5005378;28;20529;-68
2023/08/17 04:38:58;;;;;;;;;;;19.90;87.70;;;;;;4985970;28;20349;-69
2023/08/17 04:41:25;;;;;;;;;;;19.90;87.70;;;;;;4986272;28;20366;-72
2023/08/17 04:43:53;;;;;;;;;;;20.00;87.70;;;;;;5001937;28;19930;-71
2023/08/17 04:46:21;;;;;;;;;;;20.00;87.50;;;;;;4989177;28;19925;-69
2023/08/17 04:48:49;;;;;;;;;;;20.00;87.40;;;;;;4989322;28;20292;-70
2023/08/17 04:51:18;;;;;;;;;;;20.00;87.40;;;;;;5005250;28;19966;-72
2023/08/17 04:53:44;;;;;;;;;;;20.00;87.50;;;;;;4987109;28;19926;-69
2023/08/17 04:56:11;;;;;;;;;;;19.90;87.30;;;;;;4988268;28;19934;-70
2023/08/17 04:58:39;;;;;;;;;;;20.00;87.50;;;;;;4989418;28;19941;-71
2023/08/17 05:01:16;;;;;;;;;;;20.00;87.50;;;;;;5001940;28;19940;-72
2023/08/17 05:03:51;;;;;;;;;;;20.00;87.70;;;;;;4986828;28;19981;-71
2023/08/17 05:06:34;;;;;;;;;;;20.00;87.60;;;;;;4965178;28;20358;-70
2023/08/17 05:09:26;;;;;;;;;;;20.00;87.60;;;;;;4966580;28;19934;-71
2023/08/17 05:12:03;;;;;;;;;;;20.00;87.20;;;;;;4987166;28;20007;-70
2023/08/17 05:14:39;;;;;;;;;;;20.00;87.40;;;;;;4988822;28;19968;-71
2023/08/17 05:17:15;;;;;;;;;;;19.90;87.30;;;;;;5003023;28;19925;-72
2023/08/17 05:19:47;;;;;;;;;;;20.00;87.10;;;;;;4987309;28;19934;-71
2023/08/17 05:22:27;;;;;;;;;;;19.90;87.30;;;;;;4999742;28;19937;-71
2023/08/17 05:25:06;;;;;;;;;;;20.00;87.00;;;;;;4986224;28;19934;-69
2023/08/17 05:27:53;;;;;;;;;;;20.00;87.10;;;;;;4987925;28;19930;-72
2023/08/17 05:30:28;;;;;;;;;;;19.90;87.20;;;;;;5002426;28;20016;-71
2023/08/17 05:33:06;;;;;;;;;;;20.00;87.00;;;;;;5001337;28;19937;-70
2023/08/17 05:35:49;;;;;;;;;;;20.00;87.10;;;;;;5001882;28;19981;-71
2023/08/17 05:38:35;;;;;;;;;;;20.10;87.00;;;;;;5002427;28;19925;-70
2023/08/17 05:41:12;;;;;;;;;;;20.00;87.20;;;;;;5003857;28;19976;-70
2023/08/17 05:43:48;;;;;;;;;;;20.10;86.90;;;;;;4972515;28;19929;-72
2023/08/17 05:46:26;;;;;;;;;;;20.10;87.20;;;;;;4967619;28;19941;-71
2023/08/17 05:49:02;;;;;;;;;;;20.10;86.90;;;;;;4976251;28;19933;-65
2023/08/17 05:51:37;;;;;;;;;;;20.10;86.60;;;;;;4968303;28;19933;-65
2023/08/17 05:54:20;;;;;;;;;;;20.10;86.70;;;;;;4983725;28;20392;-65
2023/08/17 05:57:00;;;;;;;;;;;20.10;86.80;;;;;;4985866;28;20069;-66
2023/08/17 05:59:35;;;;;;;;;;;20.10;86.70;;;;;;4989168;28;19977;-64
2023/08/17 06:02:11;;;;;;;;;;;20.20;86.70;;;;;;4983430;28;19958;-64
2023/08/17 06:04:52;;;;;;;;;;;20.20;86.50;;;;;;4987219;28;19932;-65
2023/08/17 06:07:27;;;;;;;;;;;20.20;86.40;;;;;;4987451;28;19926;-65
2023/08/17 06:10:13;;;;;;;;;;;20.30;86.40;;;;;;4987179;28;19969;-66
2023/08/17 06:12:53;;;;;;;;;;;20.20;86.50;;;;;;4988120;28;19934;-65
2023/08/17 06:15:30;;;;;;;;;;;20.20;86.60;;;;;;4987945;28;20022;-66
2023/08/17 06:18:06;;;;;;;;;;;20.20;86.60;;;;;;4985721;28;20369;-65
2023/08/17 06:20:46;;;;;;;;;;;20.20;86.60;;;;;;4987293;28;19930;-64
2023/08/17 06:23:23;;;;;;;;;;;20.30;86.50;;;;;;4986235;28;19941;-64
2023/08/17 06:26:11;;;;;;;;;;;20.30;86.70;;;;;;4989163;28;19929;-66
2023/08/17 06:28:46;;;;;;;;;;;20.40;86.70;;;;;;4987646;28;19925;-63
2023/08/17 06:31:27;;;;;;;;;;;20.40;86.40;;;;;;4983970;28;19930;-65
2023/08/17 06:34:05;;;;;;;;;;;20.40;86.20;;;;;;4986629;28;19939;-63
2023/08/17 06:36:44;;;;;;;;;;;20.40;86.50;;;;;;4986703;28;19926;-65
2023/08/17 06:39:21;;;;;;;;;;;20.40;86.60;;;;;;4984819;28;19938;-65
2023/08/17 06:42:02;;;;;;;;;;;20.50;86.50;;;;;;4989825;28;19930;-65
2023/08/17 06:44:48;;;;;;;;;;;20.50;86.40;;;;;;4987539;28;20016;-64
2023/08/17 06:47:23;;;;;;;;;;;20.40;86.60;;;;;;4985283;28;20305;-64
2023/08/17 06:50:00;;;;;;;;;;;20.50;86.40;;;;;;4988710;28;20456;-65
2023/08/17 06:52:39;;;;;;;;;;;20.60;85.90;;;;;;4986495;28;20313;-65
2023/08/17 06:55:17;;;;;;;;;;;20.60;86.00;;;;;;4986458;28;19949;-65
2023/08/17 06:58:07;;;;;;;;;;;20.70;85.80;;;;;;4988349;28;19957;-66
2023/08/17 07:00:45;;;;;;;;;;;20.80;85.80;;;;;;4982906;28;19926;-63
2023/08/17 07:03:22;;;;;;;;;;;20.80;86.00;;;;;;4985673;28;20032;-64
2023/08/17 07:05:59;;;;;;;;;;;20.80;85.10;;;;;;4987383;28;19930;-63
2023/08/17 07:08:35;;;;;;;;;;;20.80;85.90;;;;;;4981099;28;19932;-64
2023/08/17 07:11:16;;;;;;;;;;;20.90;85.80;;;;;;4987041;28;19930;-63
2023/08/17 07:14:02;;;;;;;;;;;21.00;85.80;;;;;;4988147;28;19985;-62
2023/08/17 07:16:43;;;;;;;;;;;21.10;85.70;;;;;;4987777;28;19935;-62
2023/08/17 07:19:21;;;;;;;;;;;21.20;85.30;;;;;;4986713;28;20020;-64
2023/08/17 07:22:02;;;;;;;;;;;21.30;85.70;;;;;;4984389;28;20021;-62
2023/08/17 07:24:41;;;;;;;;;;;21.40;85.40;;;;;;4985298;28;19980;-62
2023/08/17 07:27:18;;;;;;;;;;;21.30;85.30;;;;;;4985982;28;19926;-64
2023/08/17 07:30:04;;;;;;;;;;;21.40;85.30;;;;;;4982634;28;19934;-63
2023/08/17 07:32:41;;;;;;;;;;;21.40;85.50;;;;;;4985982;28;19934;-64
2023/08/17 07:35:18;;;;;;;;;;;21.50;85.30;;;;;;4987644;28;20416;-64
2023/08/17 07:37:55;;;;;;;;;;;21.60;85.20;;;;;;5001116;28;19926;-63
2023/08/17 07:40:33;;;;;;;;;;;21.80;85.20;;;;;;4986875;28;20390;-63
2023/08/17 07:43:10;;;;;;;;;;;21.80;85.10;;;;;;4984054;28;20413;-63
2023/08/17 07:45:51;;;;;;;;;;;21.80;85.00;;;;;;4985434;28;20309;-63
2023/08/17 07:48:33;;;;;;;;;;;21.80;85.20;;;;;;4986389;28;19937;-63
2023/08/17 07:51:10;;;;;;;;;;;21.70;85.10;;;;;;4986005;28;19926;-63
2023/08/17 07:53:48;;;;;;;;;;;21.70;84.90;;;;;;4985342;28;19925;-63
2023/08/17 07:56:24;;;;;;;;;;;22.10;85.20;;;;;;4984282;28;19933;-64
2023/08/17 07:59:00;;;;;;;;;;;22.30;85.20;;;;;;4986898;28;19929;-65
2023/08/17 08:01:41;;;;;;;;;;;22.50;84.90;;;;;;4989104;28;19941;-70
2023/08/17 08:04:22;;;;;;;;;;;22.60;84.60;;;;;;4988056;28;19929;-70
2023/08/17 08:06:59;;;;;;;;;;;22.80;84.00;;;;;;4986762;28;19929;-70
2023/08/17 08:09:33;;;;;;;;;;;22.90;83.80;;;;;;4990030;28;19985;-70
2023/08/17 08:12:10;;;;;;;;;;;23.10;83.50;;;;;;4988718;28;19926;-70
2023/08/17 08:14:49;;;;;;;;;;;23.10;83.20;;;;;;4991262;28;19929;-70
2023/08/17 08:17:29;;;;;;;;;;;23.30;83.30;;;;;;4986950;28;19929;-70
2023/08/17 08:20:09;;;;;;;;;;;23.40;82.80;;;;;;4985106;28;19933;-70
2023/08/17 08:22:52;;;;;;;;;;;23.60;82.70;;;;;;4991039;28;20026;-70
2023/08/17 08:25:28;;;;;;;;;;;23.60;82.50;;;;;;4986172;28;20555;-70
2023/08/17 08:28:05;;;;;;;;;;;23.80;82.30;;;;;;4983316;28;19930;-71
2023/08/17 08:30:41;;;;;;;;;;;23.90;81.70;;;;;;4987215;28;19958;-70
2023/08/17 08:33:21;;;;;;;;;;;24.00;81.30;;;;;;4987197;28;19944;-69
2023/08/17 08:35:59;;;;;;;;;;;24.10;80.80;;;;;;4991250;28;20309;-69
2023/08/17 08:38:35;;;;;;;;;;;24.20;80.50;;;;;;4987745;28;19926;-72
2023/08/17 08:41:15;;;;;;;;;;;24.20;80.70;;;;;;4990588;28;19926;-69
2023/08/17 08:43:53;;;;;;;;;;;24.20;80.20;;;;;;4989315;28;19933;-70
2023/08/17 08:46:32;;;;;;;;;;;24.30;80.50;;;;;;4988911;28;20040;-70
2023/08/17 08:49:18;;;;;;;;;;;24.40;80.50;;;;;;4989477;28;20365;-70
2023/08/17 08:51:53;;;;;;;;;;;24.60;80.10;;;;;;4988079;28;19973;-69
2023/08/17 08:54:30;;;;;;;;;;;24.60;79.50;;;;;;4986197;28;20386;-69
2023/08/17 08:57:06;;;;;;;;;;;24.70;79.20;;;;;;4990959;28;20337;-67
2023/08/17 08:59:54;;;;;;;;;;;;;;;;;;;;;
2023/08/17 09:02:35;;;;;;;;;;;25.00;79.10;;;;;;4987359;28;19933;-70
2023/08/17 09:05:20;;;;;;;;;;;25.10;79.00;;;;;;4985251;28;19934;-69
2023/08/17 09:07:58;;;;;;;;;;;25.10;78.80;;;;;;4989994;28;19976;-69
2023/08/17 09:10:34;;;;;;;;;;;25.20;78.60;;;;;;4989603;28;20007;-69
2023/08/17 09:13:13;;;;;;;;;;;25.20;77.80;;;;;;4989690;28;19936;-70
2023/08/17 09:15:49;;;;;;;;;;;25.30;77.80;;;;;;4985978;28;20325;-68
2023/08/17 09:18:26;;;;;;;;;;;25.40;76.90;;;;;;4988724;28;19926;-68
2023/08/17 09:21:12;;;;;;;;;;;25.50;77.20;;;;;;4986314;28;19932;-68
2023/08/17 09:23:50;;;;;;;;;;;25.60;77.30;;;;;;4987139;28;20345;-69
2023/08/17 09:26:28;;;;;;;;;;;25.60;77.80;;;;;;4988460;28;19926;-69
2023/08/17 09:29:11;;;;;;;;;;;25.80;77.80;;;;;;4988979;28;20811;-68
2023/08/17 09:31:45;;;;;;;;;;;25.90;77.30;;;;;;4984850;28;19926;-68
2023/08/17 09:34:21;;;;;;;;;;;26.00;77.30;;;;;;4984544;28;20020;-69
2023/08/17 09:37:07;;;;;;;;;;;26.00;77.50;;;;;;4986229;28;19932;-68
2023/08/17 09:39:43;;;;;;;;;;;26.10;77.50;;;;;;4989065;28;20338;-68
2023/08/17 09:42:24;;;;;;;;;;;26.20;76.70;;;;;;4985891;28;19930;-69
2023/08/17 09:45:03;;;;;;;;;;;26.20;76.80;;;;;;4988878;28;19933;-68
2023/08/17 09:47:41;;;;;;;;;;;26.30;76.50;;;;;;4983250;28;20381;-68
2023/08/17 09:50:18;;;;;;;;;;;26.40;76.00;;;;;;4989460;28;19930;-68
2023/08/17 09:52:58;;;;;;;;;;;26.50;75.60;;;;;;4987280;28;20354;-68
2023/08/17 09:55:35;;;;;;;;;;;26.60;74.70;;;;;;4988637;28;19926;-69
2023/08/17 09:58:14;;;;;;;;;;;26.70;74.30;;;;;;4989085;28;19934;-68
2023/08/17 10:00:52;;;;;;;;;;;26.70;74.60;;;;;;4988286;28;19936;-68
2023/08/17 10:03:30;;;;;;;;;;;26.90;74.10;;;;;;4985451;28;19932;-68
2023/08/17 10:06:11;;;;;;;;;;;26.80;74.60;;;;;;4989190;28;20416;-68
2023/08/17 10:09:04;;;;;;;;;;;27.00;75.10;;;;;;4988788;28;19969;-68
2023/08/17 10:11:42;;;;;;;;;;;27.10;74.50;;;;;;4989809;28;19932;-69
2023/08/17 10:14:19;;;;;;;;;;;27.10;74.20;;;;;;4988111;28;20530;-68
2023/08/17 10:16:47;;;;;;;;;;;27.20;73.70;;;;;;4985487;28;20000;-68
2023/08/17 10:19:17;;;;;;;;;;;27.30;73.90;;;;;;4985854;28;19929;-65
2023/08/17 10:21:47;;;;;;;;;;;27.30;73.60;;;;;;4987308;28;19929;-67
2023/08/17 10:24:16;;;;;;;;;;;27.20;73.50;;;;;;4986150;28;19996;-66
2023/08/17 10:26:43;;;;;;;;;;;27.00;73.50;;;;;;4988531;28;19934;-67
2023/08/17 10:29:10;;;;;;;;;;;26.60;73.70;;;;;;4987544;28;20385;-66
2023/08/17 10:31:39;;;;;;;;;;;26.60;74.30;;;;;;4985153;28;19934;-66
2023/08/17 10:34:06;;;;;;;;;;;26.50;74.90;;;;;;4989440;28;19926;-66
2023/08/17 10:36:33;;;;;;;;;;;26.30;74.80;;;;;;4989368;28;20012;-65
2023/08/17 10:39:21;;;;;;;;;;;26.60;74.80;;;;;;4988214;28;19926;-66
2023/08/17 10:41:49;;;;;;;;;;;26.80;75.10;;;;;;4984414;28;19933;-65
2023/08/17 10:44:16;;;;;;;;;;;27.10;74.50;;;;;;4984757;28;20039;-65
2023/08/17 10:46:45;;;;;;;;;;;27.20;74.10;;;;;;4976908;28;19930;-66
2023/08/17 10:49:25;;;;;;;;;;;27.40;74.00;;;;;;4986662;28;19932;-65
2023/08/17 10:52:01;;;;;;;;;;;27.60;73.40;;;;;;4986648;28;19926;-66
2023/08/17 10:54:38;;;;;;;;;;;27.70;73.20;;;;;;4986017;28;19925;-66
2023/08/17 10:57:24;;;;;;;;;;;27.80;73.30;;;;;;4987563;28;19934;-67
2023/08/17 11:00:06;;;;;;;;;;;27.90;73.00;;;;;;4986525;28;20386;-66
2023/08/17 11:02:33;;;;;;;;;;;28.00;72.30;;;;;;4985643;28;20281;-65
2023/08/17 11:05:01;;;;;;;;;;;28.10;71.90;;;;;;4985305;28;19934;-66
2023/08/17 11:07:30;;;;;;;;;;;28.10;71.50;;;;;;4985632;28;19930;-66
2023/08/17 11:09:59;;;;;;;;;;;28.10;71.00;;;;;;4987591;28;20012;-67
2023/08/17 11:12:26;;;;;;;;;;;28.20;70.40;;;;;;4981068;28;20028;-66
2023/08/17 11:14:53;;;;;;;;;;;28.20;70.10;;;;;;4984448;28;19930;-67
2023/08/17 11:17:21;;;;;;;;;;;28.30;69.60;;;;;;4983559;28;19930;-64
2023/08/17 11:19:51;;;;;;;;;;;28.30;69.50;;;;;;4987535;28;19926;-65
2023/08/17 11:22:18;;;;;;;;;;;28.30;69.50;;;;;;4986501;28;20021;-66
2023/08/17 11:24:45;;;;;;;;;;;28.10;69.60;;;;;;4986611;28;20019;-65
2023/08/17 11:27:13;;;;;;;;;;;28.10;69.40;;;;;;4985388;28;19934;-67
2023/08/17 11:29:41;;;;;;;;;;;28.10;68.90;;;;;;4985643;28;19930;-67
2023/08/17 11:32:11;;;;;;;;;;;28.00;69.30;;;;;;4989399;28;20308;-67
2023/08/17 11:34:38;;;;;;;;;;;27.90;69.30;;;;;;4992836;28;20021;-67
2023/08/17 11:37:05;;;;;;;;;;;28.00;69.20;;;;;;4988087;28;19934;-67
2023/08/17 11:39:33;;;;;;;;;;;28.00;69.30;;;;;;4990438;28;19989;-66
2023/08/17 11:42:01;;;;;;;;;;;28.10;69.60;;;;;;4989533;28;19926;-67
2023/08/17 11:44:29;;;;;;;;;;;28.10;69.50;;;;;;4990926;28;19936;-66
2023/08/17 11:46:56;;;;;;;;;;;28.20;69.10;;;;;;4990646;28;19929;-66
2023/08/17 11:49:24;;;;;;;;;;;28.30;68.10;;;;;;4966255;28;19997;-67
2023/08/17 11:51:52;;;;;;;;;;;28.30;67.80;;;;;;4972759;28;20374;-66
2023/08/17 11:54:19;;;;;;;;;;;28.30;68.30;;;;;;4971673;28;19934;-66
2023/08/17 11:56:46;;;;;;;;;;;28.30;68.00;;;;;;4972431;28;20028;-66
2023/08/17 11:59:18;;;;;;;;;;;28.30;68.40;;;;;;4971365;28;19926;-67
2023/08/17 12:01:46;;;;;;;;;;;28.40;67.90;;;;;;4971606;28;20345;-66
2023/08/17 12:04:13;;;;;;;;;;;28.30;68.20;;;;;;4971292;28;20012;-68
2023/08/17 12:06:43;;;;;;;;;;;28.30;68.00;;;;;;4969432;28;19926;-66
2023/08/17 12:09:12;;;;;;;;;;;28.20;67.70;;;;;;4971278;28;19933;-66
2023/08/17 12:11:39;;;;;;;;;;;28.30;67.60;;;;;;4969023;28;19930;-67
2023/08/17 12:14:09;;;;;;;;;;;28.40;67.10;;;;;;4969199;28;19930;-65
2023/08/17 12:16:46;;;;;;;;;;;28.60;67.10;;;;;;4971773;28;19940;-65
2023/08/17 12:19:14;;;;;;;;;;;28.60;66.70;;;;;;4968060;28;19934;-66
2023/08/17 12:21:41;;;;;;;;;;;28.50;67.30;;;;;;4971599;28;20009;-67
2023/08/17 12:24:09;;;;;;;;;;;28.40;67.80;;;;;;4971569;28;19936;-66
2023/08/17 12:26:36;;;;;;;;;;;28.20;67.50;;;;;;4972117;28;19941;-66
2023/08/17 12:29:05;;;;;;;;;;;28.10;68.10;;;;;;4967913;28;19937;-65
2023/08/17 12:31:32;;;;;;;;;;;28.10;67.10;;;;;;4968779;28;20397;-64
2023/08/17 12:33:59;;;;;;;;;;;28.20;67.00;;;;;;4971359;28;20472;-69
2023/08/17 12:36:28;;;;;;;;;;;28.20;67.10;;;;;;4969970;28;20022;-67
2023/08/17 12:38:55;;;;;;;;;;;28.30;66.20;;;;;;4970602;28;19926;-67
2023/08/17 12:41:22;;;;;;;;;;;28.40;66.30;;;;;;4970018;28;19930;-68
2023/08/17 12:43:49;;;;;;;;;;;28.40;66.70;;;;;;4971803;28;19932;-69
2023/08/17 12:46:16;;;;;;;;;;;28.50;67.10;;;;;;4971199;28;19930;-68
2023/08/17 12:48:43;;;;;;;;;;;28.50;66.30;;;;;;4971348;28;19933;-67
2023/08/17 12:51:10;;;;;;;;;;;28.40;66.20;;;;;;4970841;28;19926;-67
2023/08/17 12:53:38;;;;;;;;;;;28.40;66.50;;;;;;4972129;28;19977;-67
2023/08/17 12:56:05;;;;;;;;;;;28.30;66.90;;;;;;4970298;28;20393;-68
2023/08/17 12:58:32;;;;;;;;;;;28.40;66.40;;;;;;4971688;28;19933;-69
2023/08/17 13:00:59;;;;;;;;;;;28.40;65.50;;;;;;4971468;28;19950;-68
2023/08/17 13:03:26;;;;;;;;;;;28.40;65.10;;;;;;4971269;28;20040;-68
2023/08/17 13:05:53;;;;;;;;;;;28.50;64.40;;;;;;4971719;28;19930;-68
2023/08/17 13:08:20;;;;;;;;;;;28.50;64.20;;;;;;4969412;28;19926;-67
2023/08/17 13:10:48;;;;;;;;;;;28.40;65.20;;;;;;4971486;28;20020;-66
2023/08/17 13:13:15;;;;;;;;;;;28.30;65.90;;;;;;4970459;28;20389;-67
2023/08/17 13:15:42;;;;;;;;;;;28.40;65.00;;;;;;4970914;28;20017;-68
2023/08/17 13:18:09;;;;;;;;;;;28.40;63.30;;;;;;4969872;28;19930;-67
2023/08/17 13:20:38;;;;;;;;;;;28.40;64.30;;;;;;4969700;28;20086;-69
2023/08/17 13:23:05;;;;;;;;;;;28.30;64.70;;;;;;4970301;28;19926;-68
2023/08/17 13:25:32;;;;;;;;;;;28.30;65.50;;;;;;4971458;28;19934;-69
2023/08/17 13:28:00;;;;;;;;;;;28.30;65.30;;;;;;4970541;28;19926;-69
2023/08/17 13:30:27;;;;;;;;;;;28.40;64.20;;;;;;4970348;28;19941;-70
2023/08/17 13:32:54;;;;;;;;;;;28.30;65.20;;;;;;4970278;28;19930;-69
2023/08/17 13:35:21;;;;;;;;;;;28.10;65.70;;;;;;4969807;28;19930;-68
2023/08/17 13:37:52;;;;;;;;;;;28.10;66.00;;;;;;4987712;28;19933;-66
2023/08/17 13:40:19;;;;;;;;;;;28.10;65.70;;;;;;4990227;28;19933;-68
2023/08/17 13:42:46;;;;;;;;;;;28.20;65.40;;;;;;4990269;28;19948;-67
2023/08/17 13:45:14;;;;;;;;;;;28.30;65.00;;;;;;4990542;28;19925;-67
2023/08/17 13:47:41;;;;;;;;;;;28.30;64.50;;;;;;4981726;28;20144;-67
2023/08/17 13:50:09;;;;;;;;;;;28.30;65.40;;;;;;4989299;28;19929;-71
2023/08/17 13:52:36;;;;;;;;;;;28.20;65.60;;;;;;4974029;28;19985;-71
2023/08/17 13:55:03;;;;;;;;;;;28.10;65.90;;;;;;4982068;28;19976;-70
2023/08/17 13:57:30;;;;;;;;;;;28.10;66.60;;;;;;4989324;28;19925;-72
2023/08/17 13:59:57;;;;;;;;;;;28.00;66.70;;;;;;4990451;28;20433;-69
2023/08/17 14:02:25;;;;;;;;;;;28.00;66.90;;;;;;4990000;28;20449;-70
2023/08/17 14:04:52;;;;;;;;;;;28.00;66.50;;;;;;4990633;28;19925;-70
2023/08/17 14:07:19;;;;;;;;;;;28.00;66.40;;;;;;4989621;28;20009;-70
2023/08/17 14:09:46;;;;;;;;;;;28.10;66.40;;;;;;4989692;28;20290;-71
2023/08/17 14:12:13;;;;;;;;;;;28.00;66.60;;;;;;4990774;28;20016;-71
2023/08/17 14:14:40;;;;;;;;;;;28.10;66.40;;;;;;4989729;28;20278;-71
2023/08/17 14:17:07;;;;;;;;;;;28.10;66.40;;;;;;4991896;28;19926;-70
2023/08/17 14:19:35;;;;;;;;;;;28.10;66.50;;;;;;4971428;28;19930;-69
2023/08/17 14:22:02;;;;;;;;;;;28.00;66.30;;;;;;4970185;28;20009;-71
2023/08/17 14:24:29;;;;;;;;;;;28.00;66.00;;;;;;4968884;28;20038;-71
2023/08/17 14:26:58;;;;;;;;;;;28.00;66.90;;;;;;4972721;28;19925;-71
2023/08/17 14:29:25;;;;;;;;;;;28.00;67.50;;;;;;4988461;28;19930;-70
2023/08/17 14:31:52;;;;;;;;;;;28.00;67.50;;;;;;4990315;28;19936;-69
2023/08/17 14:34:19;;;;;;;;;;;28.00;67.50;;;;;;4989270;28;20463;-70
2023/08/17 14:36:47;;;;;;;;;;;28.00;67.70;;;;;;4988831;28;19930;-70
2023/08/17 14:39:14;;;;;;;;;;;27.90;68.10;;;;;;4989390;28;19926;-71
2023/08/17 14:41:41;;;;;;;;;;;28.00;68.30;;;;;;4988396;28;19992;-70
2023/08/17 14:44:08;;;;;;;;;;;27.90;68.70;;;;;;4988118;28;20005;-72